Warsaw, IN (46580)

4:08 AM EDT on August 30, 2015 (GMT -0400)
15 South | | Change Station
CLOSE
Current Station
Personal Weather Station
Location: Warsaw, IN
Elevation: 840 ft
Nearby Weather Stations

Elev 840 ft 41.22 °N, 85.87 °W | Updated 11 minutes ago

Mostly Cloudy
Mostly Cloudy
65.4 °F
Feels Like 65.4 °F
N
1.0
Wind Variable Wind from SE
Gusts 3.0 mph

Today
High -- | Low -- °F
--% Chance of Precip.
Yesterday
High -- | Low -- °F
Precip. -- in
7:07 AM 8:19 PM
Full, 100% visible
Pressure 30.03 in
Visibility 1.2 miles
Clouds Scattered Clouds 300 ft
Mostly Cloudy 10000 ft
Dew Point 64 °F
Humidity 96%
Rainfall 0.09 in
Snow Depth Not available.
UV 0 out of 12
Pollen 9.30 out of 12
Air Quality Not available.
Flu Activity Not available.
METAR KASW 300755Z AUTO 00000KT 1 1/4SM BR SCT003 BKN100 17/17 A3003 RMK AO2 VIS 1/2V5
Pressure 30.03 in
Visibility 1.2 miles
Clouds Scattered Clouds 300 ft
Mostly Cloudy 10000 ft
Dew Point 64 °F
Humidity 96%
Rainfall 0.09 in
Snow Depth Not available.
UV 0 out of 12
Pollen 9.30 out of 12
Air Quality Not available.
Flu Activity Not available.
METAR KASW 300755Z AUTO 00000KT 1 1/4SM BR SCT003 BKN100 17/17 A3003 RMK AO2 VIS 1/2V5

10-Day Weather Forecast

×

Almanac

Astronomy

Aug. 30, 2015 Rise Set
Actual Time
Civil Twilight
Nautical Twilight
Astronomical Twilight
Moon
Length of Visible Light
Length of Day
Tomorrow will be .
, % of the Moon is Illuminated

Today's Extremes

State Highs State Lows

Community

WunderPhotos

Upload Photos

1,850,906 photos uploaded!

WunderBlogs® & News

Nearby

Air Quality

  Air Quality AQ Index Pollutant
Not available.

Snow Depth

Station Depth Elevation

Earthquake Activity

City Distance Mag. Time & Date
Minimum magnitude displayed is 2.5.

Coastal Water Temperatures

Place Temperature

Stations

Nearby Weather Stations

Station Location Temp. Windchill Dew Point Humidity Wind Precip. Elev Updated Type